Madurai Airport
VOMD : now visible

Airfield :











YOU CAN JOIN US ON...

 
LOGIN :

Register | Disclaimer

   EN    FR    IT 

 









Legend :    VFR   Marginal VFR   IFR   Intensive IFR   Very Intensive IFR
Visi :
Ceiling :
>= 8 km
>= 3000ft
5 to 8 km
1000 to 3000 ft
1500m to 5 km
500 to 1000 ft
800 to 1500m
200 to 500 ft
< 800m
< 200 ft
Symbols :   Thunderstorms  Fog  Heavy snow  Heavy precipitations  Wind > 20 kt






- Airport Elevation : 459 ft
- IATA code : IXM


VOMD - Madurai

CURRENT METAR :
  • 070400Z 35002KT 8000 FEW020 BKN100 31/22 Q1009 NOSIG

EXPIRED METARs :
  • 070330Z 36003KT 8000 FEW020 BKN100 30/22 Q1009 NOSIG
  • 070300Z 34003KT 8000 FEW020 BKN100 30/22 Q1009 NOSIG
  • 070230Z 00000KT 7000 FEW020 BKN100 30/22 Q1009 NOSIG
  • 070200Z 32002KT 6000 FEW020 SCT100 30/22 Q1009 NOSIG
  • 070130Z 33003KT 6000 FEW020 SCT100 30/22 Q1008 NOSIG

TAF TAF VOMD
Valid from the 07 at 00:00 until the 08 at 06:00 UTC


062300Z 0700/0806 00000KT 6000 FEW020 SCT100
BECMG 0702/0703 20005KT
BECMG 0706/0707 30010KT
TEMPO 0709/0715 30010G20KT 4000 -TSRA/RA SCT015 FEW025TCU/CB BKN080
BECMG 0719/0720 20005KT
BECMG 0722/0723 00000KT
BECMG 0802/0803 20010KT
VOMF FIR / Asia



MET'MAP, your aeronautical weather chart ! - Copyright ORBIFLY December 2007 - Disclaimer

ORBIFLY MET'MAP TEAM :

Programming & Development : Alexandra Zaïnal
Concept & original design : Baudouin d'Aumeries
Assistance for programming : Marc-Olivier Méhu
Technical & hardware support : Manuel Goepfert

Contact : metmap@orbifly.com




SOURCES & CREDITS :

   NOAA       Earth
Advisory